Aérodrome :
LOGIN :

S'inscrire | Disclaimer

   EN    FR    IT 

 










Légende :    VFR   VFR Marginal   IFR   IFR Intensif   IFR Très Intensif
Visi : 
Plafond : 
>= 8 km
>= 3000ft
5 à 8 km
1000 à 3000 ft
1500m à 5 km
500 à 1000 ft
800 à 1500m
200 à 500 ft
< 800m
< 200 ft
Symboles :   Orages  Brouillard  Fortes neiges  Fortes précipitations  Vent > 20 kt
SIGMETs :   Divers  Orages  Givrage  Turbulence  Onde Orograph.  Cendres Volcan.







- Altitude de l'aérodrome : 327 ft
- Code IATA : BHX
- Voir les cartes d'approche


EGBB - Birmingham

DERNIER METAR :
  • 280750Z 07004KT 9999 SCT009 BKN014 07/07 Q1017

METARs EXPIRÉS :
  • 280720Z 30002KT 9999 SCT008 BKN022 07/07 Q1017
  • 280650Z VRB01KT 9999 -SHRA SCT008 BKN022 07/07 Q1017
  • 280620Z 35004KT 9000 -SHRA SCT010 BKN020 06/06 Q1017
  • 280550Z 25001KT 9999 SCT018 BKN020 06/06 Q1017
  • 280520Z VRB03KT 6000 -RA BKN020 06/06 Q1017

TAF TAF EGBB
Valide du 28 à 06h jusqu'au 29 à 06h UTC


280455Z 2806/2906 VRB03KT 9999 SCT020
PROB30
TEMPO 2806/2810 7000 SHRA BKN010
ATIS : +44 121 780 0910
Pas de NOTAMs connus pour ce terrain.



MET'MAP, la Météo Aéronautique d'un coup d'oeil ! - Copyright ORBIFLY Décembre 2007 - Disclaimer

ORBIFLY MET'MAP TEAM :

Programmation & Développement : Alexandra Zaïnal
Conception & Développement : Baudouin d'Aumeries
Co-Programmation & Développement : Marc-Olivier Méhu
Soutien technique & logistique : Manuel Goepfert

Contact : metmap@orbifly.com




SOURCES & CREDITS :

   NOAA